Time;durP1;ratioP1;P1;durP2;ratioP2;P2;SDS_P1;SDS_P2;PMS_P1;PMS_P2;Temp;Humidity;BMP_temperature;BMP_pressure;BME280_temperature;BME280_humidity;BME280_pressure;Samples;Min_cycle;Max_cycle;Signal;HPM_P1;HPM_P2
2022/08/23 00:01:37;;;;;;;;;;;;;;;-144.99;65.19;52170.91;5031870;28;19931;-77
2022/08/23 00:04:07;;;;;;;;;;;;;;;-144.99;65.28;52207.59;5032461;28;19929;-77
2022/08/23 00:06:33;;;;;;;;;;;;;;;-144.99;65.10;52179.06;5032236;28;20043;-77
2022/08/23 00:09:00;;;;;;;;;;;;;;;-144.99;65.09;52138.28;5029480;28;20471;-77
2022/08/23 00:11:28;;;;;;;;;;;;;;;-144.99;65.04;52162.75;5031944;28;19925;-77
2022/08/23 00:13:54;;;;;;;;;;;;;;;-144.99;64.57;52154.59;5032745;28;19925;-77
2022/08/23 00:16:21;;;;;;;;;;;;;;;-144.99;64.73;52142.38;5031958;28;19951;-77
2022/08/23 00:18:47;;;;;;;;;;;;;;;-144.99;64.38;52199.44;5032585;28;19968;-77
2022/08/23 00:21:15;;;;;;;;;;;;;;;-144.99;64.37;52146.44;5032005;28;19925;-76
2022/08/23 00:23:41;;;;;;;;;;;;;;;-144.99;64.14;52138.28;5032929;28;19925;-77
2022/08/23 00:26:08;;;;;;;;;;;;;;;-144.99;63.71;52156.63;5034622;28;19983;-77
2022/08/23 00:28:34;;;;;;;;;;;;;;;-144.99;63.56;52146.44;5041156;28;19968;-76
2022/08/23 00:31:01;;;;;;;;;;;;;;;-144.99;63.39;52179.06;5044299;28;19948;-77
2022/08/23 00:33:28;;;;;;;;;;;;;;;-144.99;63.29;52117.91;5046726;28;19925;-77
2022/08/23 00:35:54;;;;;;;;;;;;;;;-144.99;63.35;52162.75;5046565;28;20007;-77
2022/08/23 00:38:22;;;;;;;;;;;;;;;-144.99;62.85;52158.66;5046727;28;19932;-76
2022/08/23 00:40:50;;;;;;;;;;;;;;;-144.99;62.94;52146.44;5046820;28;19956;-76
2022/08/23 00:48:54;;;;;;;;;;;;;;;-144.99;62.68;52174.97;5049790;28;19951;-76
2022/08/23 00:51:23;;;;;;;;;;;;;;;-144.99;62.69;52146.44;5057058;28;19951;-77
2022/08/23 00:53:53;;;;;;;;;;;;;;;-144.99;62.53;52154.59;5054131;28;19913;-76
2022/08/23 00:56:22;;;;;;;;;;;;;;;-144.99;62.31;52146.44;5052008;28;19974;-76
2022/08/23 00:58:48;;;;;;;;;;;;;;;-144.99;62.32;52183.13;5039207;28;19925;-79
2022/08/23 01:01:16;;;;;;;;;;;;;;;-144.99;62.35;52138.28;5045783;28;20032;-77
2022/08/23 01:03:44;;;;;;;;;;;;;;;-144.99;62.05;52183.13;5036728;28;19926;-77
2022/08/23 01:06:13;;;;;;;;;;;;;;;-144.99;62.22;52185.16;5036773;28;20120;-76
2022/08/23 01:08:44;;;;;;;;;;;;;;;-144.99;62.02;52170.91;5036507;28;19932;-78
2022/08/23 01:11:14;;;;;;;;;;;;;;;-144.99;62.07;52183.13;5037217;28;20265;-78
2022/08/23 01:13:43;;;;;;;;;;;;;;;-144.99;61.99;52166.81;5042500;28;19920;-76
2022/08/23 01:16:11;;;;;;;;;;;;;;;-144.99;61.88;52166.81;5057520;28;19936;-76
2022/08/23 01:18:38;;;;;;;;;;;;;;;-144.99;61.88;52146.44;5050685;28;19972;-77
2022/08/23 01:21:08;;;;;;;;;;;;;;;-144.99;61.98;52172.94;5042786;28;19925;-76
2022/08/23 01:23:40;;;;;;;;;;;;;;;-144.99;61.83;52166.81;5039551;28;20012;-76
2022/08/23 01:26:07;;;;;;;;;;;;;;;-144.99;62.03;52138.28;5034966;28;19947;-77
2022/08/23 01:28:33;;;;;;;;;;;;;;;-144.99;62.05;52166.81;5032985;28;19929;-77
2022/08/23 01:31:00;;;;;;;;;;;;;;;-144.99;62.13;52154.59;5034491;28;19951;-76
2022/08/23 01:33:27;;;;;;;;;;;;;;;-144.99;62.28;52170.91;5034064;28;20314;-78
2022/08/23 01:35:56;;;;;;;;;;;;;;;-144.99;62.38;52134.22;5034061;28;19947;-77
2022/08/23 01:38:23;;;;;;;;;;;;;;;-144.99;62.20;52166.81;5036832;28;19925;-77
2022/08/23 01:40:51;;;;;;;;;;;;;;;-144.99;62.27;52130.13;5036852;28;20013;-79
2022/08/23 01:43:18;;;;;;;;;;;;;;;-144.99;62.24;52189.25;5036532;28;19926;-77
2022/08/23 01:45:45;;;;;;;;;;;;;;;-144.99;62.22;52142.38;5035149;28;19929;-77
2022/08/23 01:48:12;;;;;;;;;;;;;;;-144.99;62.29;52117.91;5027313;28;20417;-77
2022/08/23 01:50:38;;;;;;;;;;;;;;;-144.99;62.25;52146.44;5035906;28;19925;-78
2022/08/23 01:53:05;;;;;;;;;;;;;;;-144.99;62.43;52166.81;5037292;28;20256;-77
2022/08/23 01:55:32;;;;;;;;;;;;;;;-144.99;62.30;52162.75;5036452;28;20020;-77
2022/08/23 01:58:00;;;;;;;;;;;;;;;-144.99;62.22;52146.44;5034431;28;20042;-76
2022/08/23 02:00:31;;;;;;;;;;;;;;;-144.99;61.97;52162.75;5035680;28;19925;-77
2022/08/23 02:02:58;;;;;;;;;;;;;;;-144.99;62.24;52170.91;5039057;28;19952;-77
2022/08/23 02:05:24;;;;;;;;;;;;;;;-144.99;62.38;52146.44;5040312;28;19925;-77
2022/08/23 02:07:51;;;;;;;;;;;;;;;-144.99;62.59;52158.66;5044186;28;19932;-78
2022/08/23 02:10:18;;;;;;;;;;;;;;;-144.99;62.71;52150.53;5039572;28;19976;-77
2022/08/23 02:12:45;;;;;;;;;;;;;;;-144.99;63.16;52191.28;5036039;28;19925;-78
2022/08/23 02:15:13;;;;;;;;;;;;;;;-144.99;63.31;52146.44;5043712;28;19925;-76
2022/08/23 02:17:40;;;;;;;;;;;;;;;-144.99;63.99;52201.47;5034948;28;19925;-78
2022/08/23 02:20:07;;;;;;;;;;;;;;;-144.99;63.61;52160.72;5033573;28;19931;-77
2022/08/23 02:22:34;;;;;;;;;;;;;;;-144.99;64.16;52134.22;5042844;28;20031;-76
2022/08/23 02:25:01;;;;;;;;;;;;;;;-144.99;64.03;52148.47;5034909;28;19933;-77
2022/08/23 02:27:28;;;;;;;;;;;;;;;-144.99;64.10;52183.13;5033423;28;19940;-77
2022/08/23 02:29:54;;;;;;;;;;;;;;;-144.99;64.48;52146.44;5031103;28;19925;-77
2022/08/23 02:32:22;;;;;;;;;;;;;;;-144.99;64.81;52183.13;5033395;28;20296;-78
2022/08/23 02:34:48;;;;;;;;;;;;;;;-144.99;64.92;52146.44;5034950;28;19931;-78
2022/08/23 02:37:15;;;;;;;;;;;;;;;-144.99;64.97;52170.91;5034208;28;20412;-77
2022/08/23 02:39:42;;;;;;;;;;;;;;;-144.99;64.95;52158.66;5031154;28;19937;-77
2022/08/23 02:42:09;;;;;;;;;;;;;;;-144.99;65.32;52191.28;5033039;28;19936;-76
2022/08/23 02:44:36;;;;;;;;;;;;;;;-144.99;65.50;52154.59;5030928;28;19929;-77
2022/08/23 02:47:03;;;;;;;;;;;;;;;-144.99;65.43;52191.28;5027342;28;19948;-77
2022/08/23 02:49:31;;;;;;;;;;;;;;;-144.99;65.60;52183.13;5047827;23;19924;-77
2022/08/23 02:51:57;;;;;;;;;;;;;;;-144.99;65.88;52166.81;5050832;28;20287;-79
2022/08/23 02:54:23;;;;;;;;;;;;;;;-144.99;66.06;52179.06;5070832;28;20027;-80
2022/08/23 02:56:51;;;;;;;;;;;;;;;-144.99;66.18;52174.97;5061516;28;19929;-80
2022/08/23 02:59:18;;;;;;;;;;;;;;;-144.99;66.11;52203.50;5069798;28;20369;-80
2022/08/23 03:01:44;;;;;;;;;;;;;;;-144.99;66.36;52189.25;5052001;28;19924;-79
2022/08/23 03:04:11;;;;;;;;;;;;;;;-144.99;66.46;52138.28;5041934;28;19940;-80
2022/08/23 03:06:39;;;;;;;;;;;;;;;-144.99;66.54;52158.66;5051098;28;19925;-79
2022/08/23 03:09:06;;;;;;;;;;;;;;;-144.99;66.98;52170.91;5042908;28;19929;-80
2022/08/23 03:11:33;;;;;;;;;;;;;;;-144.99;66.93;52177.00;5038436;28;19940;-79
2022/08/23 03:14:00;;;;;;;;;;;;;;;-144.99;67.36;52199.44;5050683;28;19932;-80
2022/08/23 03:16:26;;;;;;;;;;;;;;;-144.99;67.05;52189.25;5053136;28;20170;-79
2022/08/23 03:18:53;;;;;;;;;;;;;;;-144.99;67.02;52179.06;5041452;28;19979;-80
2022/08/23 03:21:20;;;;;;;;;;;;;;;-144.99;67.12;52191.28;5050431;28;19947;-80
2022/08/23 03:23:48;;;;;;;;;;;;;;;-144.99;67.24;52172.94;5050240;28;19924;-80
2022/08/23 03:26:15;;;;;;;;;;;;;;;-144.99;67.26;52170.91;5049750;28;19995;-80
2022/08/23 03:28:42;;;;;;;;;;;;;;;-144.99;67.13;52195.34;5041114;28;19960;-80
2022/08/23 03:31:09;;;;;;;;;;;;;;;-144.99;67.44;52158.66;5045245;28;19964;-80
2022/08/23 03:33:35;;;;;;;;;;;;;;;-144.99;67.31;52166.81;5050469;28;20449;-80
2022/08/23 03:36:03;;;;;;;;;;;;;;;-144.99;67.46;52191.28;5048164;28;19964;-81
2022/08/23 03:38:30;;;;;;;;;;;;;;;-144.99;67.77;52185.16;5041769;28;20395;-80
2022/08/23 03:40:59;;;;;;;;;;;;;;;-144.99;67.73;52183.13;5048136;28;19925;-80
2022/08/23 03:43:25;;;;;;;;;;;;;;;-144.99;68.05;52170.91;5051564;28;19980;-80
2022/08/23 03:45:52;;;;;;;;;;;;;;;-144.99;67.82;52170.91;5048065;28;19935;-80
2022/08/23 03:48:18;;;;;;;;;;;;;;;-144.99;67.54;52201.47;5043488;28;20020;-80
2022/08/23 03:50:45;;;;;;;;;;;;;;;-144.99;67.34;52191.28;5042686;28;19925;-80
2022/08/23 03:53:12;;;;;;;;;;;;;;;-144.99;67.09;52158.66;5054792;28;19979;-80
2022/08/23 03:55:38;;;;;;;;;;;;;;;-144.99;66.98;52199.44;5050364;28;19925;-80
2022/08/23 03:58:06;;;;;;;;;;;;;;;-144.99;67.05;52195.34;5052675;28;19925;-80
2022/08/23 04:00:32;;;;;;;;;;;;;;;-144.99;67.19;52142.38;5047000;28;19975;-81
2022/08/23 04:02:59;;;;;;;;;;;;;;;-144.99;67.38;52203.50;5049736;28;19939;-80
2022/08/23 04:05:26;;;;;;;;;;;;;;;-144.99;67.53;52162.75;5044694;28;20597;-79
2022/08/23 04:07:52;;;;;;;;;;;;;;;-144.99;67.50;52219.81;5048435;28;19931;-80
2022/08/23 04:10:19;;;;;;;;;;;;;;;-144.99;67.64;52177.00;5044020;28;19936;-80
2022/08/23 04:12:46;;;;;;;;;;;;;;;-144.99;67.52;52203.50;5042341;28;20426;-79
2022/08/23 04:15:14;;;;;;;;;;;;;;;-144.99;67.66;52197.41;5049402;28;20015;-79
2022/08/23 04:17:41;;;;;;;;;;;;;;;-144.99;67.71;52179.06;5052363;28;20023;-79
2022/08/23 04:20:08;;;;;;;;;;;;;;;-144.99;68.31;52203.50;5047841;28;19925;-79
2022/08/23 04:22:34;;;;;;;;;;;;;;;-144.99;68.30;52199.44;5049926;28;20034;-81
2022/08/23 04:25:01;;;;;;;;;;;;;;;-144.99;68.63;52187.19;5049596;28;19983;-81
2022/08/23 04:27:28;;;;;;;;;;;;;;;-144.99;68.52;52183.13;5049183;28;19925;-81
2022/08/23 04:29:54;;;;;;;;;;;;;;;-144.99;68.59;52158.66;5048144;28;19935;-81
2022/08/23 04:32:22;;;;;;;;;;;;;;;-144.99;68.48;52183.13;5049875;28;19925;-81
2022/08/23 04:34:48;;;;;;;;;;;;;;;-144.99;68.39;52183.13;5050663;28;20027;-79
2022/08/23 04:37:16;;;;;;;;;;;;;;;-144.99;69.03;52187.19;5052590;28;19925;-75
2022/08/23 04:42:32;;;;;;;;;;;;;;;-144.99;68.98;52162.75;5006803;28;20038;-76
2022/08/23 04:44:58;;;;;;;;;;;;;;;-144.99;69.34;52191.28;5049466;28;19935;-74
2022/08/23 04:47:26;;;;;;;;;;;;;;;-144.99;69.38;52195.34;5036640;28;20491;-76
2022/08/23 04:49:52;;;;;;;;;;;;;;;-144.99;69.55;52191.28;5045074;28;20479;-76
2022/08/23 04:52:19;;;;;;;;;;;;;;;-144.99;69.70;52168.84;5043049;28;19925;-77
2022/08/23 04:54:45;;;;;;;;;;;;;;;-144.99;69.62;52185.16;5049980;28;19947;-76
2022/08/23 04:57:14;;;;;;;;;;;;;;;-144.99;70.01;52203.50;5046901;28;19944;-76
2022/08/23 04:59:41;;;;;;;;;;;;;;;-144.99;70.00;52187.19;5049036;28;20388;-74
2022/08/23 05:02:08;;;;;;;;;;;;;;;-144.99;70.40;52170.91;5046945;28;20663;-75
2022/08/23 05:04:35;;;;;;;;;;;;;;;-144.99;70.38;52197.41;5049970;28;20027;-75
2022/08/23 05:07:02;;;;;;;;;;;;;;;-144.99;70.46;52179.06;5044830;28;20020;-75
2022/08/23 05:09:29;;;;;;;;;;;;;;;-144.99;70.18;52179.06;5041105;28;19931;-74
2022/08/23 05:11:55;;;;;;;;;;;;;;;-144.99;70.01;52187.19;5034980;28;20334;-75
2022/08/23 05:14:21;;;;;;;;;;;;;;;-144.99;69.92;52166.81;5049213;28;20023;-76
2022/08/23 05:16:50;;;;;;;;;;;;;;;-144.99;69.55;52146.44;5046146;28;19932;-73
2022/08/23 05:19:17;;;;;;;;;;;;;;;-144.99;69.40;52174.97;5040334;28;19932;-75
2022/08/23 05:21:45;;;;;;;;;;;;;;;-144.99;69.37;52183.13;5046244;28;20047;-73
2022/08/23 05:24:11;;;;;;;;;;;;;;;-144.99;69.37;52152.56;5059444;28;19951;-74
2022/08/23 05:26:38;;;;;;;;;;;;;;;-144.99;69.13;52152.56;5051325;28;19975;-74
2022/08/23 05:29:04;;;;;;;;;;;;;;;-144.99;68.60;52156.63;5040833;28;20025;-74
2022/08/23 05:31:31;;;;;;;;;;;;;;;-144.99;68.64;52183.13;5042523;28;19936;-74
2022/08/23 05:33:57;;;;;;;;;;;;;;;-144.99;68.18;52170.91;5049125;28;19925;-74
2022/08/23 05:36:23;;;;;;;;;;;;;;;-144.99;67.93;52150.53;5046084;28;20253;-74
2022/08/23 05:38:52;;;;;;;;;;;;;;;-144.99;67.77;52166.81;5049205;28;20408;-76
2022/08/23 05:41:18;;;;;;;;;;;;;;;-144.99;67.45;52179.06;5045261;28;20019;-73
2022/08/23 05:43:45;;;;;;;;;;;;;;;-144.99;67.24;52146.44;5048773;28;19928;-75
2022/08/23 05:46:13;;;;;;;;;;;;;;;-144.99;67.38;52146.44;5043873;28;19925;-76
2022/08/23 05:48:40;;;;;;;;;;;;;;;-144.99;66.97;52170.91;5043033;28;19971;-75
2022/08/23 05:51:11;;;;;;;;;;;;;;;-144.99;66.84;52211.66;5037470;28;20004;-76
2022/08/23 05:53:38;;;;;;;;;;;;;;;-144.99;66.35;52138.28;5048723;28;19983;-73
2022/08/23 05:56:13;;;;;;;;;;;;;;;-144.99;66.51;52130.13;5048410;28;19928;-76
2022/08/23 05:58:40;;;;;;;;;;;;;;;-144.99;65.57;52156.63;5046745;28;20095;-74
2022/08/23 06:01:07;;;;;;;;;;;;;;;-144.99;65.10;52154.59;5049415;28;20011;-73
2022/08/23 06:03:33;;;;;;;;;;;;;;;-144.99;64.60;52166.81;5047776;28;19971;-73
2022/08/23 06:06:00;;;;;;;;;;;;;;;-144.99;64.53;52170.91;5048807;28;19925;-75
2022/08/23 06:08:27;;;;;;;;;;;;;;;-144.99;64.53;52150.53;5035237;28;20323;-75
2022/08/23 06:10:59;;;;;;;;;;;;;;;-144.99;63.89;52142.38;5042657;28;20151;-73
2022/08/23 06:13:27;;;;;;;;;;;;;;;-144.99;63.52;52134.22;5042152;28;19940;-73
2022/08/23 06:15:53;;;;;;;;;;;;;;;-144.99;63.57;52170.91;5048817;28;19931;-73
2022/08/23 06:18:20;;;;;;;;;;;;;;;-144.99;63.48;52158.66;5046160;28;20022;-74
2022/08/23 06:20:46;;;;;;;;;;;;;;;-144.99;63.98;52156.63;5048065;28;19929;-74
2022/08/23 06:23:12;;;;;;;;;;;;;;;-144.99;63.42;52156.63;5048181;28;20319;-75
2022/08/23 06:25:39;;;;;;;;;;;;;;;-144.99;63.58;52162.75;5048116;28;20291;-76
2022/08/23 06:28:05;;;;;;;;;;;;;;;-144.99;63.66;52154.59;5035354;28;19926;-76
2022/08/23 06:30:33;;;;;;;;;;;;;;;-144.99;63.56;52187.19;5047827;28;20315;-75
2022/08/23 06:32:59;;;;;;;;;;;;;;;-144.99;63.24;52126.06;5044291;28;19926;-77
2022/08/23 06:35:26;;;;;;;;;;;;;;;-144.99;63.12;52121.97;5048397;28;19980;-76
2022/08/23 06:37:52;;;;;;;;;;;;;;;-144.99;63.87;52142.38;5034579;28;19925;-75
2022/08/23 06:40:19;;;;;;;;;;;;;;;-144.99;63.35;52150.53;5045660;28;19960;-75
2022/08/23 06:42:45;;;;;;;;;;;;;;;-144.99;63.53;52166.81;5044896;28;19971;-75
2022/08/23 06:45:13;;;;;;;;;;;;;;;-144.99;62.81;52152.56;5047453;28;19931;-73
2022/08/23 06:47:40;;;;;;;;;;;;;;;-144.99;62.62;52138.28;5035788;28;20032;-75
2022/08/23 06:50:08;;;;;;;;;;;;;;;-144.99;61.10;52142.38;5042388;28;19941;-76
2022/08/23 06:52:35;;;;;;;;;;;;;;;-144.99;60.17;52115.88;5044195;28;19929;-76
2022/08/23 06:55:02;;;;;;;;;;;;;;;-144.99;59.63;52105.69;5048296;28;20320;-75
2022/08/23 06:57:29;;;;;;;;;;;;;;;-144.99;59.18;52101.59;5045775;28;19990;-74
2022/08/23 06:59:55;;;;;;;;;;;;;;;-144.99;58.58;52119.94;5047340;28;20149;-75
2022/08/23 07:02:21;;;;;;;;;;;;;;;-144.99;58.04;52109.75;5046672;28;20032;-75
2022/08/23 07:04:52;;;;;;;;;;;;;;;-144.99;58.25;52138.28;5048661;28;20032;-75
2022/08/23 07:07:19;;;;;;;;;;;;;;;-144.99;58.15;52117.91;5041890;28;20048;-75
2022/08/23 07:09:45;;;;;;;;;;;;;;;-144.99;57.29;52134.22;5042027;28;20015;-74
2022/08/23 07:12:12;;;;;;;;;;;;;;;-144.99;57.44;52126.06;5034832;28;19946;-75
2022/08/23 07:14:38;;;;;;;;;;;;;;;-144.99;56.76;52134.22;5047938;28;19925;-75
2022/08/23 07:17:05;;;;;;;;;;;;;;;-144.99;56.60;52101.59;5044713;28;20248;-77
2022/08/23 07:19:33;;;;;;;;;;;;;;;-144.99;56.83;52097.53;5038600;28;19993;-75
2022/08/23 07:22:02;;;;;;;;;;;;;;;-144.99;56.41;52132.19;5045215;28;19925;-75
2022/08/23 07:24:29;;;;;;;;;;;;;;;-144.99;55.86;52134.22;5047862;28;20407;-75
2022/08/23 07:26:56;;;;;;;;;;;;;;;-144.99;55.35;52148.47;5042139;28;19933;-75
2022/08/23 07:29:22;;;;;;;;;;;;;;;-144.99;55.23;52121.97;5041578;28;20024;-74
2022/08/23 07:31:50;;;;;;;;;;;;;;;-144.99;55.00;52097.53;5034909;28;20426;-75
2022/08/23 07:34:16;;;;;;;;;;;;;;;-144.99;54.67;52077.16;5047819;28;19932;-75
2022/08/23 07:36:44;;;;;;;;;;;;;;;-144.99;54.11;52101.59;5047833;28;19960;-77
2022/08/23 07:39:13;;;;;;;;;;;;;;;-144.99;53.85;52101.59;5047280;28;19931;-76
2022/08/23 07:41:40;;;;;;;;;;;;;;;-144.99;53.31;52064.91;5036515;28;19928;-77
2022/08/23 07:44:08;;;;;;;;;;;;;;;-144.99;52.88;52091.41;5047662;28;20016;-75
2022/08/23 07:46:35;;;;;;;;;;;;;;;-144.99;52.17;52089.38;5043670;28;19925;-74
2022/08/23 07:49:02;;;;;;;;;;;;;;;-144.99;51.88;52081.22;5042447;28;20015;-73
2022/08/23 07:51:29;;;;;;;;;;;;;;;-144.99;51.69;52101.59;5039203;28;19925;-72
2022/08/23 07:53:56;;;;;;;;;;;;;;;-144.99;51.36;52089.38;5046798;28;19935;-74
2022/08/23 07:56:24;;;;;;;;;;;;;;;-144.99;51.46;52097.53;5048396;28;20003;-75
2022/08/23 07:58:51;;;;;;;;;;;;;;;-144.99;51.06;52075.09;5047076;28;19931;-75
2022/08/23 08:01:19;;;;;;;;;;;;;;;-144.99;50.23;52083.25;5047858;28;19925;-75
2022/08/23 08:03:46;;;;;;;;;;;;;;;-144.99;49.80;52101.59;5046085;28;19960;-74
2022/08/23 08:06:14;;;;;;;;;;;;;;;-144.99;49.87;52101.59;5047863;28;20452;-74
2022/08/23 08:08:41;;;;;;;;;;;;;;;-144.99;49.64;52052.69;5042770;28;19996;-75
2022/08/23 08:11:08;;;;;;;;;;;;;;;-144.99;49.71;52089.38;5052169;28;19960;-75
2022/08/23 08:13:37;;;;;;;;;;;;;;;-144.99;49.39;52089.38;5031430;28;19936;-75
2022/08/23 08:16:03;;;;;;;;;;;;;;;-144.99;49.17;52087.34;5046553;28;19932;-75
2022/08/23 08:18:30;;;;;;;;;;;;;;;-144.99;48.31;52064.91;5044228;28;19925;-75
2022/08/23 08:20:56;;;;;;;;;;;;;;;-144.99;48.17;52113.84;5046127;28;20295;-77
2022/08/23 08:23:23;;;;;;;;;;;;;;;-144.99;47.90;52081.22;5043565;28;19931;-74
2022/08/23 08:25:49;;;;;;;;;;;;;;;-144.99;47.87;52044.53;5045938;28;19925;-74
2022/08/23 08:28:15;;;;;;;;;;;;;;;-144.99;47.48;52066.97;5033720;28;19925;-74
2022/08/23 08:30:43;;;;;;;;;;;;;;;-144.99;47.04;52073.06;5044035;28;20514;-74
2022/08/23 08:33:09;;;;;;;;;;;;;;;-144.99;46.74;52044.53;5042634;28;20344;-76
2022/08/23 08:35:36;;;;;;;;;;;;;;;-144.99;47.02;52073.06;5046369;28;20015;-75
2022/08/23 08:38:02;;;;;;;;;;;;;;;-144.99;46.84;52060.84;5046974;28;20380;-75
2022/08/23 08:40:32;;;;;;;;;;;;;;;-144.99;47.02;52093.44;5045977;28;20032;-77
2022/08/23 08:43:06;;;;;;;;;;;;;;;-144.99;46.48;52056.78;5042888;28;20035;-76
2022/08/23 08:45:45;;;;;;;;;;;;;;;-144.99;46.43;52040.47;5046101;28;20273;-75
2022/08/23 08:48:14;;;;;;;;;;;;;;;-144.99;46.27;52056.78;5037130;28;20265;-76
2022/08/23 08:50:42;;;;;;;;;;;;;;;-144.99;46.24;52040.47;5038104;28;19932;-74
2022/08/23 08:53:12;;;;;;;;;;;;;;;-144.99;45.99;52093.44;5047740;28;20407;-77
2022/08/23 08:55:40;;;;;;;;;;;;;;;-144.99;45.33;52062.88;5038274;22;19987;-77
2022/08/23 08:58:14;;;;;;;;;;;;;;;-144.99;45.52;52058.81;5010950;28;19932;-79
2022/08/23 09:00:40;;;;;;;;;;;;;;;-144.99;45.19;52032.31;5010517;28;19926;-77
2022/08/23 09:03:10;;;;;;;;;;;;;;;-144.99;45.44;52064.91;5007340;28;20032;-78
2022/08/23 09:05:39;;;;;;;;;;;;;;;-144.99;44.90;52058.81;5036919;28;19929;-78
2022/08/23 09:08:12;;;;;;;;;;;;;;;-144.99;44.81;52048.63;5036966;28;19925;-79
2022/08/23 09:10:49;;;;;;;;;;;;;;;-144.99;44.51;52024.16;5027051;28;19934;-78
2022/08/23 09:13:29;;;;;;;;;;;;;;;-144.99;44.52;52064.91;5043387;28;19947;-77
2022/08/23 09:15:58;;;;;;;;;;;;;;;-144.99;44.27;52052.69;5048116;28;19933;-78
2022/08/23 09:18:24;;;;;;;;;;;;;;;-144.99;44.20;52026.19;5044967;28;19952;-77
2022/08/23 09:20:54;;;;;;;;;;;;;;;-144.99;43.69;52048.63;5047721;28;19956;-78
2022/08/23 09:23:22;;;;;;;;;;;;;;;-144.99;43.35;52062.88;5035522;28;19933;-77
2022/08/23 09:25:51;;;;;;;;;;;;;;;-144.99;42.93;52028.22;5047365;28;19933;-77
2022/08/23 09:28:17;;;;;;;;;;;;;;;-144.99;42.98;52016.00;5043340;28;19956;-78
2022/08/23 09:30:53;;;;;;;;;;;;;;;-144.99;42.92;52024.16;5046747;28;19960;-78
2022/08/23 09:33:20;;;;;;;;;;;;;;;-144.99;42.17;52044.53;5039340;28;19925;-78
2022/08/23 09:36:03;;;;;;;;;;;;;;;-144.99;42.00;52030.28;5042058;28;19960;-78
2022/08/23 09:38:29;;;;;;;;;;;;;;;-144.99;41.56;52016.00;5042881;28;20443;-78
2022/08/23 09:40:57;;;;;;;;;;;;;;;-144.99;42.09;52020.09;5036323;28;19932;-77
2022/08/23 09:43:26;;;;;;;;;;;;;;;-144.99;42.07;52020.09;5035264;28;20380;-78
2022/08/23 09:45:54;;;;;;;;;;;;;;;-144.99;41.87;52028.22;5036132;28;19986;-78
2022/08/23 09:48:32;;;;;;;;;;;;;;;-144.99;42.43;52016.00;5019599;28;20004;-78
2022/08/23 09:51:05;;;;;;;;;;;;;;;-144.99;41.53;52001.75;5036042;28;19925;-77
2022/08/23 09:53:32;;;;;;;;;;;;;;;-144.99;41.60;51989.50;5034904;28;19925;-78
2022/08/23 09:56:10;;;;;;;;;;;;;;;-144.99;41.64;51991.56;5037680;28;20272;-77
2022/08/23 09:58:39;;;;;;;;;;;;;;;-144.99;41.22;51967.09;5035527;28;19929;-79
2022/08/23 10:01:10;;;;;;;;;;;;;;;-144.99;41.04;51999.69;5035779;28;19925;-78
2022/08/23 10:03:37;;;;;;;;;;;;;;;-144.99;40.69;51975.25;5048553;28;19940;-77
2022/08/23 10:06:07;;;;;;;;;;;;;;;-144.99;40.23;51958.94;5043765;28;19925;-77
2022/08/23 10:08:34;;;;;;;;;;;;;;;-144.99;40.04;51934.50;5045284;28;19925;-78
2022/08/23 10:11:05;;;;;;;;;;;;;;;-144.99;40.16;51950.78;5044058;28;19971;-78
2022/08/23 10:13:32;;;;;;;;;;;;;;;-144.99;39.67;51930.41;5042235;28;19925;-78
2022/08/23 10:16:05;;;;;;;;;;;;;;;-144.99;39.10;51950.78;5037383;28;19976;-78
2022/08/23 10:18:38;;;;;;;;;;;;;;;-144.99;38.57;51942.63;5035601;28;19925;-78
2022/08/23 10:21:07;;;;;;;;;;;;;;;-144.99;38.70;51930.41;5035267;28;19932;-78
2022/08/23 10:23:41;;;;;;;;;;;;;;;-144.99;38.52;51942.63;5037266;28;19963;-78
2022/08/23 10:26:11;;;;;;;;;;;;;;;-144.99;38.19;51934.50;5035920;28;19956;-77
2022/08/23 10:31:33;;;;;;;;;;;;;;;-144.99;37.61;51926.34;5034702;28;20016;-76
2022/08/23 10:34:06;;;;;;;;;;;;;;;-144.99;37.12;51905.97;5035589;28;19972;-78
2022/08/23 10:36:43;;;;;;;;;;;;;;;-144.99;37.03;51928.38;5031657;28;20386;-77
2022/08/23 10:39:13;;;;;;;;;;;;;;;-144.99;36.66;51869.28;5033367;28;20015;-78
2022/08/23 10:41:47;;;;;;;;;;;;;;;-144.99;36.78;51910.03;5035128;28;20020;-78
2022/08/23 10:44:33;;;;;;;;;;;;;;;-144.99;36.51;51873.34;5035478;28;19971;-78
2022/08/23 10:47:12;;;;;;;;;;;;;;;-144.99;36.35;51877.44;5026221;28;20012;-78
2022/08/23 10:49:40;;;;;;;;;;;;;;;-144.99;35.96;51869.28;5032630;28;20032;-77
2022/08/23 10:52:10;;;;;;;;;;;;;;;-144.99;36.10;51869.28;5035764;28;19970;-79
2022/08/23 10:54:45;;;;;;;;;;;;;;;-144.99;36.12;51865.19;5033943;28;20396;-79
2022/08/23 10:57:14;;;;;;;;;;;;;;;-144.99;35.47;51826.47;5037057;28;19972;-78
2022/08/23 10:59:42;;;;;;;;;;;;;;;-144.99;35.83;51828.50;5038350;28;20352;-79
2022/08/23 11:02:18;;;;;;;;;;;;;;;-144.99;35.58;51832.59;5027857;28;19925;-78
2022/08/23 11:04:50;;;;;;;;;;;;;;;-144.99;35.71;51799.97;5037276;28;19929;-78
2022/08/23 11:07:19;;;;;;;;;;;;;;;-144.99;34.74;51767.38;5033565;28;19937;-77
2022/08/23 11:09:58;;;;;;;;;;;;;;;-144.99;34.96;51812.22;5034179;28;19960;-78
2022/08/23 11:12:29;;;;;;;;;;;;;;;-144.99;34.88;51742.91;5031640;28;20345;-79
2022/08/23 11:15:04;;;;;;;;;;;;;;;-144.99;34.61;51795.91;5036873;28;19925;-78
2022/08/23 11:17:34;;;;;;;;;;;;;;;-144.99;34.78;51806.09;5036461;28;19956;-78
2022/08/23 11:20:04;;;;;;;;;;;;;;;-144.99;34.46;51696.06;5033235;28;19960;-77
2022/08/23 11:22:33;;;;;;;;;;;;;;;-144.99;34.18;51738.84;5037426;28;19925;-78
2022/08/23 11:25:01;;;;;;;;;;;;;;;-144.99;33.92;51747.00;5036991;28;20380;-77
2022/08/23 11:27:33;;;;;;;;;;;;;;;-144.99;33.67;51771.44;5044978;28;20159;-78
2022/08/23 11:30:14;;;;;;;;;;;;;;;-144.99;34.08;51820.38;5050812;28;19960;-77
2022/08/23 11:32:44;;;;;;;;;;;;;;;-144.99;33.91;51779.59;5045461;28;19935;-78
2022/08/23 11:35:28;;;;;;;;;;;;;;;-144.99;33.44;51795.91;5047129;28;19947;-77
2022/08/23 11:37:58;;;;;;;;;;;;;;;-144.99;33.55;51795.91;5037712;28;19925;-77
2022/08/23 11:40:38;;;;;;;;;;;;;;;-144.99;33.52;51804.06;5047618;28;19980;-78
2022/08/23 11:43:09;;;;;;;;;;;;;;;-144.99;33.97;51759.22;5057043;28;19925;-77
2022/08/23 11:45:40;;;;;;;;;;;;;;;-144.99;33.47;51767.38;5047084;28;19972;-78
2022/08/23 11:48:19;;;;;;;;;;;;;;;-144.99;33.60;51791.84;5037563;28;20157;-77
2022/08/23 11:50:52;;;;;;;;;;;;;;;-144.99;33.18;51734.78;5046677;28;19964;-78
2022/08/23 11:53:25;;;;;;;;;;;;;;;-144.99;33.43;51744.97;5047269;28;19968;-78
2022/08/23 11:56:01;;;;;;;;;;;;;;;-144.99;33.10;51781.63;5044571;28;19948;-78
2022/08/23 11:58:33;;;;;;;;;;;;;;;-144.99;32.89;51742.91;5036543;28;19929;-78
2022/08/23 12:01:07;;;;;;;;;;;;;;;-144.99;32.81;51767.38;5034760;28;20436;-77
2022/08/23 12:03:36;;;;;;;;;;;;;;;-144.99;32.76;51751.06;5036346;28;19925;-78
2022/08/23 12:06:32;;;;;;;;;;;;;;;-144.99;32.78;51779.59;5033791;28;19926;-79
2022/08/23 12:09:01;;;;;;;;;;;;;;;-144.99;33.01;51799.97;5030061;28;19932;-79
2022/08/23 12:11:43;;;;;;;;;;;;;;;-144.99;33.39;51791.84;5033505;28;19947;-77
2022/08/23 12:14:28;;;;;;;;;;;;;;;-144.99;32.98;51767.38;5032763;28;20512;-78
2022/08/23 12:16:54;;;;;;;;;;;;;;;-144.99;32.61;51761.25;5035051;28;20020;-81
2022/08/23 12:19:29;;;;;;;;;;;;;;;-144.99;32.29;51775.53;5037154;28;20001;-78
2022/08/23 12:21:56;;;;;;;;;;;;;;;-144.99;32.50;51755.16;5033069;28;19935;-78
2022/08/23 12:24:25;;;;;;;;;;;;;;;-144.99;32.71;51767.38;5034591;28;19925;-78
2022/08/23 12:26:57;;;;;;;;;;;;;;;-144.99;31.96;51747.00;5040605;28;20031;-80
2022/08/23 12:29:31;;;;;;;;;;;;;;;-144.99;32.38;51759.22;5039060;28;19925;-78
2022/08/23 12:32:00;;;;;;;;;;;;;;;-144.99;32.57;51785.72;5033396;28;19964;-79
2022/08/23 12:34:32;;;;;;;;;;;;;;;-144.99;33.23;51783.69;5035594;28;20012;-78
2022/08/23 12:37:03;;;;;;;;;;;;;;;-144.99;32.33;51799.97;5034440;28;19947;-81
2022/08/23 12:39:33;;;;;;;;;;;;;;;-144.99;32.75;51793.88;5032572;28;20646;-78
2022/08/23 12:42:04;;;;;;;;;;;;;;;-144.99;32.90;51793.88;5033324;28;19947;-79
2022/08/23 12:44:30;;;;;;;;;;;;;;;-144.99;32.31;51787.75;5033465;28;19989;-77
2022/08/23 12:47:09;;;;;;;;;;;;;;;-144.99;32.02;51777.56;5026173;28;20025;-78